sensor_id;sensor_type;location;lat;lon;timestamp;P1;durP1;ratioP1;P2;durP2;ratioP2
6434;SDS011;3250;42.694;23.278;2022-12-19T00:00:19;19.37;;;9.50;;
6434;SDS011;3250;42.694;23.278;2022-12-19T00:02:45;21.10;;;10.90;;
6434;SDS011;3250;42.694;23.278;2022-12-19T00:05:10;19.53;;;9.73;;
6434;SDS011;3250;42.694;23.278;2022-12-19T00:07:37;19.77;;;9.73;;
6434;SDS011;3250;42.694;23.278;2022-12-19T00:10:03;16.13;;;9.00;;
6434;SDS011;3250;42.694;23.278;2022-12-19T00:12:29;20.73;;;9.00;;
6434;SDS011;3250;42.694;23.278;2022-12-19T00:14:54;18.97;;;9.27;;
6434;SDS011;3250;42.694;23.278;2022-12-19T00:17:20;20.37;;;11.03;;
6434;SDS011;3250;42.694;23.278;2022-12-19T00:19:45;20.37;;;10.33;;
6434;SDS011;3250;42.694;23.278;2022-12-19T00:22:10;21.02;;;10.98;;
6434;SDS011;3250;42.694;23.278;2022-12-19T00:24:36;20.67;;;10.13;;
6434;SDS011;3250;42.694;23.278;2022-12-19T00:27:01;18.87;;;9.33;;
6434;SDS011;3250;42.694;23.278;2022-12-19T00:29:27;21.13;;;9.90;;
6434;SDS011;3250;42.694;23.278;2022-12-19T00:31:52;21.80;;;10.43;;
6434;SDS011;3250;42.694;23.278;2022-12-19T00:34:18;22.13;;;10.10;;
6434;SDS011;3250;42.694;23.278;2022-12-19T00:36:43;21.17;;;9.90;;
6434;SDS011;3250;42.694;23.278;2022-12-19T00:39:09;21.47;;;11.40;;
6434;SDS011;3250;42.694;23.278;2022-12-19T00:41:36;20.00;;;9.40;;
6434;SDS011;3250;42.694;23.278;2022-12-19T00:44:03;22.33;;;11.15;;
6434;SDS011;3250;42.694;23.278;2022-12-19T00:46:31;18.23;;;8.77;;
6434;SDS011;3250;42.694;23.278;2022-12-19T00:48:57;18.50;;;10.23;;
6434;SDS011;3250;42.694;23.278;2022-12-19T00:51:27;15.70;;;9.47;;
6434;SDS011;3250;42.694;23.278;2022-12-19T00:53:56;19.80;;;10.70;;
6434;SDS011;3250;42.694;23.278;2022-12-19T00:56:23;21.40;;;10.33;;
6434;SDS011;3250;42.694;23.278;2022-12-19T00:58:54;20.17;;;9.63;;
6434;SDS011;3250;42.694;23.278;2022-12-19T01:01:22;24.50;;;10.52;;
6434;SDS011;3250;42.694;23.278;2022-12-19T01:03:49;19.70;;;9.63;;
6434;SDS011;3250;42.694;23.278;2022-12-19T01:06:16;18.13;;;10.10;;
6434;SDS011;3250;42.694;23.278;2022-12-19T01:08:41;19.97;;;10.33;;
6434;SDS011;3250;42.694;23.278;2022-12-19T01:11:07;20.40;;;10.37;;
6434;SDS011;3250;42.694;23.278;2022-12-19T01:13:33;23.27;;;10.82;;
6434;SDS011;3250;42.694;23.278;2022-12-19T01:16:01;24.50;;;10.13;;
6434;SDS011;3250;42.694;23.278;2022-12-19T01:18:34;19.75;;;10.52;;
6434;SDS011;3250;42.694;23.278;2022-12-19T01:21:00;21.55;;;11.25;;
6434;SDS011;3250;42.694;23.278;2022-12-19T01:23:28;21.98;;;11.63;;
6434;SDS011;3250;42.694;23.278;2022-12-19T01:25:54;19.97;;;9.03;;
6434;SDS011;3250;42.694;23.278;2022-12-19T01:28:20;20.75;;;10.77;;
6434;SDS011;3250;42.694;23.278;2022-12-19T01:30:46;21.55;;;11.43;;
6434;SDS011;3250;42.694;23.278;2022-12-19T01:33:12;19.85;;;11.02;;
6434;SDS011;3250;42.694;23.278;2022-12-19T01:35:40;20.53;;;10.60;;
6434;SDS011;3250;42.694;23.278;2022-12-19T01:38:08;20.20;;;9.63;;
6434;SDS011;3250;42.694;23.278;2022-12-19T01:40:37;19.80;;;9.20;;
6434;SDS011;3250;42.694;23.278;2022-12-19T01:43:03;21.47;;;9.13;;
6434;SDS011;3250;42.694;23.278;2022-12-19T01:45:32;19.73;;;9.80;;
6434;SDS011;3250;42.694;23.278;2022-12-19T01:50:38;22.60;;;10.13;;
6434;SDS011;3250;42.694;23.278;2022-12-19T01:53:13;20.40;;;9.47;;
6434;SDS011;3250;42.694;23.278;2022-12-19T01:55:39;20.77;;;9.27;;
6434;SDS011;3250;42.694;23.278;2022-12-19T01:58:07;22.85;;;10.90;;
6434;SDS011;3250;42.694;23.278;2022-12-19T02:00:34;18.00;;;9.17;;
6434;SDS011;3250;42.694;23.278;2022-12-19T02:03:10;21.70;;;9.47;;
6434;SDS011;3250;42.694;23.278;2022-12-19T02:05:42;22.13;;;11.88;;
6434;SDS011;3250;42.694;23.278;2022-12-19T02:08:09;20.33;;;9.50;;
6434;SDS011;3250;42.694;23.278;2022-12-19T02:10:34;23.67;;;10.60;;
6434;SDS011;3250;42.694;23.278;2022-12-19T02:13:00;18.80;;;9.80;;
6434;SDS011;3250;42.694;23.278;2022-12-19T02:15:27;23.00;;;10.43;;
6434;SDS011;3250;42.694;23.278;2022-12-19T02:18:08;21.92;;;10.77;;
6434;SDS011;3250;42.694;23.278;2022-12-19T02:20:50;17.50;;;9.07;;
6434;SDS011;3250;42.694;23.278;2022-12-19T02:31:33;22.60;;;11.47;;
6434;SDS011;3250;42.694;23.278;2022-12-19T02:36:42;35.30;;;19.03;;
6434;SDS011;3250;42.694;23.278;2022-12-19T02:39:40;23.33;;;13.67;;
6434;SDS011;3250;42.694;23.278;2022-12-19T02:42:40;21.67;;;10.40;;
6434;SDS011;3250;42.694;23.278;2022-12-19T02:45:09;21.97;;;11.10;;
6434;SDS011;3250;42.694;23.278;2022-12-19T02:47:38;20.42;;;10.93;;
6434;SDS011;3250;42.694;23.278;2022-12-19T02:50:06;23.67;;;11.73;;
6434;SDS011;3250;42.694;23.278;2022-12-19T02:55:07;20.77;;;10.60;;
6434;SDS011;3250;42.694;23.278;2022-12-19T03:00:22;20.77;;;10.23;;
6434;SDS011;3250;42.694;23.278;2022-12-19T03:02:52;19.63;;;9.80;;
6434;SDS011;3250;42.694;23.278;2022-12-19T03:05:44;20.70;;;9.37;;
6434;SDS011;3250;42.694;23.278;2022-12-19T03:08:22;22.05;;;11.15;;
6434;SDS011;3250;42.694;23.278;2022-12-19T03:10:57;19.37;;;8.80;;
6434;SDS011;3250;42.694;23.278;2022-12-19T03:13:32;21.75;;;11.85;;
6434;SDS011;3250;42.694;23.278;2022-12-19T03:16:00;19.20;;;10.43;;
6434;SDS011;3250;42.694;23.278;2022-12-19T03:18:27;21.23;;;10.13;;
6434;SDS011;3250;42.694;23.278;2022-12-19T03:21:03;22.33;;;9.77;;
6434;SDS011;3250;42.694;23.278;2022-12-19T03:23:36;21.80;;;10.40;;
6434;SDS011;3250;42.694;23.278;2022-12-19T03:26:05;21.27;;;10.53;;
6434;SDS011;3250;42.694;23.278;2022-12-19T03:28:35;23.75;;;11.82;;
6434;SDS011;3250;42.694;23.278;2022-12-19T03:31:06;21.93;;;10.37;;
6434;SDS011;3250;42.694;23.278;2022-12-19T03:33:33;22.63;;;11.95;;
6434;SDS011;3250;42.694;23.278;2022-12-19T03:36:03;20.37;;;10.70;;
6434;SDS011;3250;42.694;23.278;2022-12-19T03:38:31;21.35;;;10.98;;
6434;SDS011;3250;42.694;23.278;2022-12-19T03:40:58;21.35;;;11.57;;
6434;SDS011;3250;42.694;23.278;2022-12-19T03:43:26;19.90;;;11.13;;
6434;SDS011;3250;42.694;23.278;2022-12-19T03:45:56;21.10;;;9.73;;
6434;SDS011;3250;42.694;23.278;2022-12-19T04:01:50;38.80;;;15.27;;
6434;SDS011;3250;42.694;23.278;2022-12-19T04:04:17;38.30;;;14.77;;
6434;SDS011;3250;42.694;23.278;2022-12-19T04:06:45;36.63;;;15.73;;
6434;SDS011;3250;42.694;23.278;2022-12-19T04:09:12;28.90;;;13.40;;
6434;SDS011;3250;42.694;23.278;2022-12-19T04:11:42;28.25;;;14.02;;
6434;SDS011;3250;42.694;23.278;2022-12-19T04:14:15;24.77;;;12.60;;
6434;SDS011;3250;42.694;23.278;2022-12-19T04:17:18;24.60;;;10.80;;
6434;SDS011;3250;42.694;23.278;2022-12-19T04:22:28;20.87;;;9.63;;
6434;SDS011;3250;42.694;23.278;2022-12-19T04:24:59;25.08;;;13.02;;
6434;SDS011;3250;42.694;23.278;2022-12-19T04:27:27;28.23;;;11.93;;
6434;SDS011;3250;42.694;23.278;2022-12-19T04:29:54;21.27;;;10.00;;
6434;SDS011;3250;42.694;23.278;2022-12-19T04:32:23;26.20;;;11.70;;
6434;SDS011;3250;42.694;23.278;2022-12-19T04:34:49;20.73;;;11.03;;
6434;SDS011;3250;42.694;23.278;2022-12-19T04:37:15;22.93;;;12.20;;
6434;SDS011;3250;42.694;23.278;2022-12-19T04:39:40;24.53;;;10.53;;
6434;SDS011;3250;42.694;23.278;2022-12-19T04:42:06;21.53;;;10.10;;
6434;SDS011;3250;42.694;23.278;2022-12-19T04:44:31;22.93;;;10.83;;
6434;SDS011;3250;42.694;23.278;2022-12-19T04:46:57;21.63;;;10.93;;
6434;SDS011;3250;42.694;23.278;2022-12-19T04:49:22;22.23;;;11.10;;
6434;SDS011;3250;42.694;23.278;2022-12-19T04:51:47;25.63;;;11.23;;
6434;SDS011;3250;42.694;23.278;2022-12-19T04:54:13;22.47;;;9.97;;
6434;SDS011;3250;42.694;23.278;2022-12-19T04:56:38;25.20;;;10.70;;
6434;SDS011;3250;42.694;23.278;2022-12-19T04:59:04;21.80;;;10.10;;
6434;SDS011;3250;42.694;23.278;2022-12-19T05:01:29;25.10;;;11.13;;
6434;SDS011;3250;42.694;23.278;2022-12-19T05:03:55;20.30;;;10.17;;
6434;SDS011;3250;42.694;23.278;2022-12-19T05:06:20;25.47;;;11.80;;
6434;SDS011;3250;42.694;23.278;2022-12-19T05:08:46;20.77;;;10.30;;
6434;SDS011;3250;42.694;23.278;2022-12-19T05:11:13;22.43;;;10.27;;
6434;SDS011;3250;42.694;23.278;2022-12-19T05:13:39;25.80;;;12.73;;
6434;SDS011;3250;42.694;23.278;2022-12-19T05:16:06;25.83;;;11.53;;
6434;SDS011;3250;42.694;23.278;2022-12-19T05:18:34;22.65;;;12.00;;
6434;SDS011;3250;42.694;23.278;2022-12-19T05:21:00;24.97;;;10.87;;
6434;SDS011;3250;42.694;23.278;2022-12-19T05:23:26;20.67;;;10.20;;
6434;SDS011;3250;42.694;23.278;2022-12-19T05:25:51;24.47;;;11.57;;
6434;SDS011;3250;42.694;23.278;2022-12-19T05:28:17;27.93;;;11.97;;
6434;SDS011;3250;42.694;23.278;2022-12-19T05:30:43;27.67;;;13.20;;
6434;SDS011;3250;42.694;23.278;2022-12-19T05:33:09;23.23;;;10.97;;
6434;SDS011;3250;42.694;23.278;2022-12-19T05:35:35;29.47;;;12.03;;
6434;SDS011;3250;42.694;23.278;2022-12-19T05:38:01;25.23;;;10.30;;
6434;SDS011;3250;42.694;23.278;2022-12-19T05:40:27;23.67;;;11.13;;
6434;SDS011;3250;42.694;23.278;2022-12-19T05:42:53;27.02;;;12.38;;
6434;SDS011;3250;42.694;23.278;2022-12-19T05:45:18;21.03;;;10.03;;
6434;SDS011;3250;42.694;23.278;2022-12-19T05:47:44;22.80;;;11.20;;
6434;SDS011;3250;42.694;23.278;2022-12-19T05:50:11;26.30;;;12.40;;
6434;SDS011;3250;42.694;23.278;2022-12-19T05:52:37;22.03;;;11.30;;
6434;SDS011;3250;42.694;23.278;2022-12-19T05:55:02;20.67;;;9.87;;
6434;SDS011;3250;42.694;23.278;2022-12-19T05:57:29;22.25;;;11.63;;
6434;SDS011;3250;42.694;23.278;2022-12-19T05:59:54;28.08;;;13.13;;
6434;SDS011;3250;42.694;23.278;2022-12-19T06:02:20;25.83;;;11.70;;
6434;SDS011;3250;42.694;23.278;2022-12-19T06:04:45;24.92;;;12.43;;
6434;SDS011;3250;42.694;23.278;2022-12-19T06:07:11;19.60;;;10.57;;
6434;SDS011;3250;42.694;23.278;2022-12-19T06:09:36;24.70;;;11.37;;
6434;SDS011;3250;42.694;23.278;2022-12-19T06:12:01;23.40;;;11.07;;
6434;SDS011;3250;42.694;23.278;2022-12-19T06:14:27;28.80;;;14.07;;
6434;SDS011;3250;42.694;23.278;2022-12-19T06:16:52;27.20;;;13.50;;
6434;SDS011;3250;42.694;23.278;2022-12-19T06:19:18;28.90;;;14.45;;
6434;SDS011;3250;42.694;23.278;2022-12-19T06:21:43;32.70;;;16.53;;
6434;SDS011;3250;42.694;23.278;2022-12-19T06:24:08;30.13;;;16.47;;
6434;SDS011;3250;42.694;23.278;2022-12-19T06:26:35;25.00;;;12.93;;
6434;SDS011;3250;42.694;23.278;2022-12-19T06:29:00;28.70;;;13.30;;
6434;SDS011;3250;42.694;23.278;2022-12-19T06:31:25;36.80;;;13.83;;
6434;SDS011;3250;42.694;23.278;2022-12-19T06:33:51;32.47;;;13.33;;
6434;SDS011;3250;42.694;23.278;2022-12-19T06:36:19;27.03;;;12.53;;
6434;SDS011;3250;42.694;23.278;2022-12-19T06:38:52;29.93;;;12.40;;
6434;SDS011;3250;42.694;23.278;2022-12-19T06:41:19;31.97;;;12.60;;
6434;SDS011;3250;42.694;23.278;2022-12-19T06:44:07;28.77;;;12.80;;
6434;SDS011;3250;42.694;23.278;2022-12-19T06:46:34;38.20;;;15.73;;
6434;SDS011;3250;42.694;23.278;2022-12-19T06:49:01;37.93;;;16.20;;
6434;SDS011;3250;42.694;23.278;2022-12-19T06:51:26;29.53;;;13.50;;
6434;SDS011;3250;42.694;23.278;2022-12-19T06:53:52;24.97;;;12.80;;
6434;SDS011;3250;42.694;23.278;2022-12-19T06:56:18;26.93;;;12.93;;
6434;SDS011;3250;42.694;23.278;2022-12-19T06:58:44;26.10;;;12.90;;
6434;SDS011;3250;42.694;23.278;2022-12-19T07:01:19;23.77;;;11.13;;
6434;SDS011;3250;42.694;23.278;2022-12-19T07:03:49;23.33;;;11.37;;
6434;SDS011;3250;42.694;23.278;2022-12-19T07:06:14;23.67;;;10.53;;
6434;SDS011;3250;42.694;23.278;2022-12-19T07:08:40;25.50;;;12.07;;
6434;SDS011;3250;42.694;23.278;2022-12-19T07:11:06;28.50;;;11.53;;
6434;SDS011;3250;42.694;23.278;2022-12-19T07:13:31;22.50;;;10.80;;
6434;SDS011;3250;42.694;23.278;2022-12-19T07:15:57;23.23;;;11.03;;
6434;SDS011;3250;42.694;23.278;2022-12-19T07:18:25;26.48;;;11.70;;
6434;SDS011;3250;42.694;23.278;2022-12-19T07:20:51;23.93;;;10.20;;
6434;SDS011;3250;42.694;23.278;2022-12-19T07:23:17;20.13;;;10.10;;
6434;SDS011;3250;42.694;23.278;2022-12-19T07:25:45;23.70;;;10.67;;
6434;SDS011;3250;42.694;23.278;2022-12-19T07:28:11;19.93;;;10.43;;
6434;SDS011;3250;42.694;23.278;2022-12-19T07:30:37;23.20;;;11.53;;
6434;SDS011;3250;42.694;23.278;2022-12-19T07:33:02;21.30;;;10.10;;
6434;SDS011;3250;42.694;23.278;2022-12-19T07:35:28;31.37;;;12.17;;
6434;SDS011;3250;42.694;23.278;2022-12-19T07:37:53;22.87;;;10.83;;
6434;SDS011;3250;42.694;23.278;2022-12-19T07:40:19;21.43;;;10.27;;
6434;SDS011;3250;42.694;23.278;2022-12-19T07:42:44;22.53;;;10.73;;
6434;SDS011;3250;42.694;23.278;2022-12-19T07:45:10;21.30;;;10.17;;
6434;SDS011;3250;42.694;23.278;2022-12-19T07:47:38;24.17;;;10.97;;
6434;SDS011;3250;42.694;23.278;2022-12-19T07:50:03;23.57;;;10.67;;
6434;SDS011;3250;42.694;23.278;2022-12-19T07:52:29;30.70;;;10.93;;
6434;SDS011;3250;42.694;23.278;2022-12-19T07:54:55;24.20;;;10.70;;
6434;SDS011;3250;42.694;23.278;2022-12-19T07:57:20;22.83;;;10.03;;
6434;SDS011;3250;42.694;23.278;2022-12-19T07:59:45;20.83;;;10.87;;
6434;SDS011;3250;42.694;23.278;2022-12-19T08:02:11;19.70;;;9.60;;
6434;SDS011;3250;42.694;23.278;2022-12-19T08:04:37;16.93;;;8.80;;
6434;SDS011;3250;42.694;23.278;2022-12-19T08:07:03;20.60;;;9.03;;
6434;SDS011;3250;42.694;23.278;2022-12-19T08:09:29;27.07;;;10.63;;
6434;SDS011;3250;42.694;23.278;2022-12-19T08:11:54;18.70;;;9.77;;
6434;SDS011;3250;42.694;23.278;2022-12-19T08:14:20;21.53;;;11.40;;
6434;SDS011;3250;42.694;23.278;2022-12-19T08:16:45;24.97;;;11.57;;
6434;SDS011;3250;42.694;23.278;2022-12-19T08:19:11;27.53;;;11.77;;
6434;SDS011;3250;42.694;23.278;2022-12-19T08:21:36;28.20;;;12.37;;
6434;SDS011;3250;42.694;23.278;2022-12-19T08:24:02;21.40;;;10.43;;
6434;SDS011;3250;42.694;23.278;2022-12-19T08:26:28;25.87;;;12.00;;
6434;SDS011;3250;42.694;23.278;2022-12-19T08:28:54;23.30;;;10.33;;
6434;SDS011;3250;42.694;23.278;2022-12-19T08:31:21;25.03;;;11.57;;
6434;SDS011;3250;42.694;23.278;2022-12-19T08:33:49;25.70;;;11.23;;
6434;SDS011;3250;42.694;23.278;2022-12-19T08:36:16;26.13;;;11.40;;
6434;SDS011;3250;42.694;23.278;2022-12-19T08:38:43;27.60;;;12.47;;
6434;SDS011;3250;42.694;23.278;2022-12-19T08:41:09;22.73;;;10.97;;
6434;SDS011;3250;42.694;23.278;2022-12-19T08:43:35;28.27;;;11.87;;
6434;SDS011;3250;42.694;23.278;2022-12-19T08:46:00;29.30;;;13.20;;
6434;SDS011;3250;42.694;23.278;2022-12-19T08:48:26;32.07;;;13.37;;
6434;SDS011;3250;42.694;23.278;2022-12-19T08:50:54;25.60;;;12.47;;
6434;SDS011;3250;42.694;23.278;2022-12-19T08:53:21;26.50;;;13.97;;
6434;SDS011;3250;42.694;23.278;2022-12-19T08:55:54;35.10;;;14.33;;
6434;SDS011;3250;42.694;23.278;2022-12-19T08:58:25;29.40;;;12.70;;
6434;SDS011;3250;42.694;23.278;2022-12-19T09:00:53;33.80;;;14.20;;
6434;SDS011;3250;42.694;23.278;2022-12-19T09:03:18;32.77;;;13.77;;
6434;SDS011;3250;42.694;23.278;2022-12-19T09:05:45;26.07;;;13.13;;
6434;SDS011;3250;42.694;23.278;2022-12-19T09:08:10;34.80;;;14.23;;
6434;SDS011;3250;42.694;23.278;2022-12-19T09:10:36;31.17;;;13.90;;
6434;SDS011;3250;42.694;23.278;2022-12-19T09:13:03;32.87;;;14.40;;
6434;SDS011;3250;42.694;23.278;2022-12-19T09:15:29;30.47;;;14.63;;
6434;SDS011;3250;42.694;23.278;2022-12-19T09:17:55;39.37;;;16.23;;
6434;SDS011;3250;42.694;23.278;2022-12-19T09:20:21;33.37;;;15.43;;
6434;SDS011;3250;42.694;23.278;2022-12-19T09:22:46;38.47;;;16.03;;
6434;SDS011;3250;42.694;23.278;2022-12-19T09:25:11;34.77;;;14.27;;
6434;SDS011;3250;42.694;23.278;2022-12-19T09:27:37;32.73;;;15.20;;
6434;SDS011;3250;42.694;23.278;2022-12-19T09:30:02;29.80;;;13.97;;
6434;SDS011;3250;42.694;23.278;2022-12-19T09:32:28;31.20;;;15.03;;
6434;SDS011;3250;42.694;23.278;2022-12-19T09:34:54;33.67;;;14.60;;
6434;SDS011;3250;42.694;23.278;2022-12-19T09:37:19;27.60;;;13.10;;
6434;SDS011;3250;42.694;23.278;2022-12-19T09:39:45;31.27;;;14.43;;
6434;SDS011;3250;42.694;23.278;2022-12-19T09:47:28;28.77;;;11.47;;
6434;SDS011;3250;42.694;23.278;2022-12-19T09:49:55;26.47;;;11.57;;
6434;SDS011;3250;42.694;23.278;2022-12-19T09:52:34;21.60;;;11.70;;
6434;SDS011;3250;42.694;23.278;2022-12-19T10:00:49;28.67;;;11.33;;
6434;SDS011;3250;42.694;23.278;2022-12-19T10:05:54;24.57;;;11.20;;
6434;SDS011;3250;42.694;23.278;2022-12-19T10:08:30;25.67;;;12.03;;
6434;SDS011;3250;42.694;23.278;2022-12-19T10:14:18;32.13;;;12.00;;
6434;SDS011;3250;42.694;23.278;2022-12-19T10:16:38;27.53;;;12.23;;
6434;SDS011;3250;42.694;23.278;2022-12-19T10:22:00;23.80;;;11.10;;
6434;SDS011;3250;42.694;23.278;2022-12-19T10:27:45;23.60;;;12.20;;
6434;SDS011;3250;42.694;23.278;2022-12-19T10:35:16;28.43;;;11.50;;
6434;SDS011;3250;42.694;23.278;2022-12-19T10:37:47;27.90;;;11.23;;
6434;SDS011;3250;42.694;23.278;2022-12-19T10:42:57;25.87;;;12.50;;
6434;SDS011;3250;42.694;23.278;2022-12-19T10:45:24;25.60;;;10.90;;
6434;SDS011;3250;42.694;23.278;2022-12-19T10:47:57;25.73;;;11.70;;
6434;SDS011;3250;42.694;23.278;2022-12-19T10:50:27;26.90;;;11.80;;
6434;SDS011;3250;42.694;23.278;2022-12-19T10:58:11;25.77;;;11.97;;
6434;SDS011;3250;42.694;23.278;2022-12-19T11:00:55;21.37;;;11.23;;
6434;SDS011;3250;42.694;23.278;2022-12-19T11:03:26;26.23;;;12.27;;
6434;SDS011;3250;42.694;23.278;2022-12-19T11:05:55;29.80;;;12.80;;
6434;SDS011;3250;42.694;23.278;2022-12-19T11:08:28;21.13;;;12.20;;
6434;SDS011;3250;42.694;23.278;2022-12-19T11:10:58;27.63;;;12.30;;
6434;SDS011;3250;42.694;23.278;2022-12-19T11:16:07;23.20;;;10.63;;
6434;SDS011;3250;42.694;23.278;2022-12-19T11:21:25;19.70;;;9.13;;
6434;SDS011;3250;42.694;23.278;2022-12-19T11:23:59;26.20;;;11.80;;
6434;SDS011;3250;42.694;23.278;2022-12-19T11:29:18;21.93;;;11.37;;
6434;SDS011;3250;42.694;23.278;2022-12-19T11:31:48;23.33;;;11.00;;
6434;SDS011;3250;42.694;23.278;2022-12-19T11:34:21;23.73;;;11.27;;
6434;SDS011;3250;42.694;23.278;2022-12-19T11:36:51;23.83;;;11.40;;
6434;SDS011;3250;42.694;23.278;2022-12-19T11:39:25;26.70;;;12.00;;
6434;SDS011;3250;42.694;23.278;2022-12-19T11:42:06;24.07;;;11.20;;
6434;SDS011;3250;42.694;23.278;2022-12-19T11:44:46;21.77;;;10.23;;
6434;SDS011;3250;42.694;23.278;2022-12-19T11:49:58;18.73;;;10.00;;
6434;SDS011;3250;42.694;23.278;2022-12-19T11:52:35;20.60;;;9.53;;
6434;SDS011;3250;42.694;23.278;2022-12-19T11:55:19;24.07;;;9.90;;
6434;SDS011;3250;42.694;23.278;2022-12-19T11:57:49;20.93;;;9.07;;
6434;SDS011;3250;42.694;23.278;2022-12-19T12:00:17;17.27;;;8.80;;
6434;SDS011;3250;42.694;23.278;2022-12-19T12:05:44;21.03;;;8.90;;
6434;SDS011;3250;42.694;23.278;2022-12-19T12:10:55;15.43;;;7.60;;
6434;SDS011;3250;42.694;23.278;2022-12-19T12:16:19;17.90;;;8.10;;
6434;SDS011;3250;42.694;23.278;2022-12-19T12:24:26;18.27;;;8.17;;
6434;SDS011;3250;42.694;23.278;2022-12-19T12:29:54;14.23;;;7.20;;
6434;SDS011;3250;42.694;23.278;2022-12-19T12:32:41;12.23;;;6.57;;
6434;SDS011;3250;42.694;23.278;2022-12-19T12:35:36;12.70;;;5.90;;
6434;SDS011;3250;42.694;23.278;2022-12-19T12:40:56;15.77;;;7.17;;
6434;SDS011;3250;42.694;23.278;2022-12-19T12:46:19;15.70;;;8.03;;
6434;SDS011;3250;42.694;23.278;2022-12-19T12:48:59;18.30;;;7.95;;
6434;SDS011;3250;42.694;23.278;2022-12-19T12:51:27;13.27;;;7.87;;
6434;SDS011;3250;42.694;23.278;2022-12-19T12:54:06;17.43;;;9.50;;
6434;SDS011;3250;42.694;23.278;2022-12-19T12:56:36;20.83;;;7.10;;
6434;SDS011;3250;42.694;23.278;2022-12-19T12:59:05;17.83;;;8.03;;
6434;SDS011;3250;42.694;23.278;2022-12-19T13:01:46;14.00;;;7.67;;
6434;SDS011;3250;42.694;23.278;2022-12-19T13:04:18;19.52;;;8.85;;
6434;SDS011;3250;42.694;23.278;2022-12-19T13:11:49;17.63;;;8.07;;
6434;SDS011;3250;42.694;23.278;2022-12-19T13:14:43;18.98;;;9.27;;
6434;SDS011;3250;42.694;23.278;2022-12-19T13:17:24;15.63;;;8.13;;
6434;SDS011;3250;42.694;23.278;2022-12-19T13:22:36;18.67;;;9.40;;
6434;SDS011;3250;42.694;23.278;2022-12-19T13:25:50;17.33;;;9.27;;
6434;SDS011;3250;42.694;23.278;2022-12-19T13:30:30;17.13;;;8.02;;
6434;SDS011;3250;42.694;23.278;2022-12-19T13:40:53;14.57;;;7.90;;
6434;SDS011;3250;42.694;23.278;2022-12-19T13:43:29;12.90;;;7.15;;
6434;SDS011;3250;42.694;23.278;2022-12-19T13:49:01;15.45;;;7.53;;
6434;SDS011;3250;42.694;23.278;2022-12-19T13:54:29;14.65;;;6.95;;
6434;SDS011;3250;42.694;23.278;2022-12-19T13:56:58;14.13;;;7.68;;
6434;SDS011;3250;42.694;23.278;2022-12-19T13:59:25;14.20;;;7.97;;
6434;SDS011;3250;42.694;23.278;2022-12-19T14:01:53;13.80;;;7.43;;
6434;SDS011;3250;42.694;23.278;2022-12-19T14:04:28;17.70;;;8.23;;
6434;SDS011;3250;42.694;23.278;2022-12-19T14:07:02;15.80;;;7.68;;
6434;SDS011;3250;42.694;23.278;2022-12-19T14:09:33;14.77;;;7.45;;
6434;SDS011;3250;42.694;23.278;2022-12-19T14:12:03;15.25;;;8.30;;
6434;SDS011;3250;42.694;23.278;2022-12-19T14:14:31;19.23;;;8.25;;
6434;SDS011;3250;42.694;23.278;2022-12-19T14:17:17;15.98;;;8.55;;
6434;SDS011;3250;42.694;23.278;2022-12-19T14:19:46;13.35;;;7.72;;
6434;SDS011;3250;42.694;23.278;2022-12-19T14:24:58;14.73;;;8.18;;
6434;SDS011;3250;42.694;23.278;2022-12-19T14:27:41;14.20;;;7.85;;
6434;SDS011;3250;42.694;23.278;2022-12-19T14:30:20;17.65;;;8.75;;
6434;SDS011;3250;42.694;23.278;2022-12-19T14:32:49;15.85;;;8.98;;
6434;SDS011;3250;42.694;23.278;2022-12-19T14:35:17;13.97;;;7.40;;
6434;SDS011;3250;42.694;23.278;2022-12-19T14:37:46;15.77;;;8.77;;
6434;SDS011;3250;42.694;23.278;2022-12-19T14:40:29;17.67;;;8.90;;
6434;SDS011;3250;42.694;23.278;2022-12-19T14:43:03;12.17;;;7.23;;
6434;SDS011;3250;42.694;23.278;2022-12-19T14:48:56;16.37;;;8.03;;
6434;SDS011;3250;42.694;23.278;2022-12-19T14:51:34;14.18;;;7.72;;
6434;SDS011;3250;42.694;23.278;2022-12-19T14:54:03;15.43;;;8.23;;
6434;SDS011;3250;42.694;23.278;2022-12-19T14:56:51;16.23;;;8.23;;
6434;SDS011;3250;42.694;23.278;2022-12-19T15:04:47;11.13;;;6.80;;
6434;SDS011;3250;42.694;23.278;2022-12-19T15:07:25;11.93;;;6.25;;
6434;SDS011;3250;42.694;23.278;2022-12-19T15:10:00;17.38;;;8.23;;
6434;SDS011;3250;42.694;23.278;2022-12-19T15:12:28;18.55;;;9.05;;
6434;SDS011;3250;42.694;23.278;2022-12-19T15:18:02;17.27;;;8.82;;
6434;SDS011;3250;42.694;23.278;2022-12-19T15:20:39;16.70;;;8.87;;
6434;SDS011;3250;42.694;23.278;2022-12-19T15:23:05;14.77;;;7.97;;
6434;SDS011;3250;42.694;23.278;2022-12-19T15:25:30;14.03;;;7.93;;
6434;SDS011;3250;42.694;23.278;2022-12-19T15:27:55;12.23;;;7.15;;
6434;SDS011;3250;42.694;23.278;2022-12-19T15:30:21;13.57;;;7.10;;
6434;SDS011;3250;42.694;23.278;2022-12-19T15:32:47;11.93;;;6.75;;
6434;SDS011;3250;42.694;23.278;2022-12-19T15:35:15;16.27;;;8.55;;
6434;SDS011;3250;42.694;23.278;2022-12-19T15:37:42;16.10;;;8.07;;
6434;SDS011;3250;42.694;23.278;2022-12-19T15:40:13;17.42;;;9.38;;
6434;SDS011;3250;42.694;23.278;2022-12-19T15:42:41;17.90;;;9.60;;
6434;SDS011;3250;42.694;23.278;2022-12-19T15:45:12;22.08;;;10.68;;
6434;SDS011;3250;42.694;23.278;2022-12-19T15:47:40;18.73;;;10.68;;
6434;SDS011;3250;42.694;23.278;2022-12-19T15:50:14;22.10;;;11.23;;
6434;SDS011;3250;42.694;23.278;2022-12-19T15:52:42;22.67;;;11.88;;
6434;SDS011;3250;42.694;23.278;2022-12-19T15:55:12;23.13;;;11.93;;
6434;SDS011;3250;42.694;23.278;2022-12-19T15:57:39;22.63;;;11.55;;
6434;SDS011;3250;42.694;23.278;2022-12-19T16:00:10;21.17;;;12.02;;
6434;SDS011;3250;42.694;23.278;2022-12-19T16:02:43;23.80;;;11.95;;
6434;SDS011;3250;42.694;23.278;2022-12-19T16:05:10;24.92;;;12.40;;
6434;SDS011;3250;42.694;23.278;2022-12-19T16:07:35;25.17;;;11.88;;
6434;SDS011;3250;42.694;23.278;2022-12-19T16:10:01;25.05;;;12.02;;
6434;SDS011;3250;42.694;23.278;2022-12-19T16:12:32;23.23;;;11.73;;
6434;SDS011;3250;42.694;23.278;2022-12-19T16:15:00;22.48;;;11.23;;
6434;SDS011;3250;42.694;23.278;2022-12-19T16:17:28;23.50;;;12.77;;
6434;SDS011;3250;42.694;23.278;2022-12-19T16:19:56;21.77;;;11.23;;
6434;SDS011;3250;42.694;23.278;2022-12-19T16:22:25;23.13;;;12.10;;
6434;SDS011;3250;42.694;23.278;2022-12-19T16:24:52;23.92;;;12.27;;
6434;SDS011;3250;42.694;23.278;2022-12-19T16:29:48;24.20;;;12.30;;
6434;SDS011;3250;42.694;23.278;2022-12-19T16:32:14;24.80;;;12.43;;
6434;SDS011;3250;42.694;23.278;2022-12-19T16:34:40;21.65;;;11.15;;
6434;SDS011;3250;42.694;23.278;2022-12-19T16:37:06;24.10;;;11.23;;
6434;SDS011;3250;42.694;23.278;2022-12-19T16:39:31;20.95;;;11.80;;
6434;SDS011;3250;42.694;23.278;2022-12-19T16:41:56;23.90;;;12.10;;
6434;SDS011;3250;42.694;23.278;2022-12-19T16:44:22;28.57;;;13.53;;
6434;SDS011;3250;42.694;23.278;2022-12-19T16:46:49;28.55;;;12.88;;
6434;SDS011;3250;42.694;23.278;2022-12-19T16:49:16;31.55;;;14.20;;
6434;SDS011;3250;42.694;23.278;2022-12-19T16:51:44;24.50;;;12.15;;
6434;SDS011;3250;42.694;23.278;2022-12-19T16:54:10;26.95;;;11.65;;
6434;SDS011;3250;42.694;23.278;2022-12-19T16:56:38;25.73;;;12.02;;
6434;SDS011;3250;42.694;23.278;2022-12-19T16:59:10;24.08;;;12.70;;
6434;SDS011;3250;42.694;23.278;2022-12-19T17:01:43;24.65;;;11.70;;
6434;SDS011;3250;42.694;23.278;2022-12-19T17:04:12;23.50;;;12.60;;
6434;SDS011;3250;42.694;23.278;2022-12-19T17:06:40;27.30;;;12.48;;
6434;SDS011;3250;42.694;23.278;2022-12-19T17:09:06;25.33;;;12.88;;
6434;SDS011;3250;42.694;23.278;2022-12-19T17:11:32;23.20;;;12.55;;
6434;SDS011;3250;42.694;23.278;2022-12-19T17:14:03;23.88;;;12.38;;